Time;durP1;ratioP1;P1;durP2;ratioP2;P2;SDS_P1;SDS_P2;PMS_P1;PMS_P2;Temp;Humidity;BMP_temperature;BMP_pressure;BME280_temperature;BME280_humidity;BME280_pressure;Samples;Min_cycle;Max_cycle;Signal;HPM_P1;HPM_P2
2023/01/27 00:01:36;;;;;;;;;;;77.70;2227.20;;;;;;5068921;28;19909;-78
2023/01/27 00:04:02;;;;;;;;;;;77.70;2227.20;;;;;;5068158;28;19909;-77
2023/01/27 00:06:27;;;;;;;;;;;77.70;2227.20;;;;;;5068935;28;19908;-77
2023/01/27 00:08:53;;;;;;;;;;;77.70;2227.20;;;;;;5057822;28;19908;-77
2023/01/27 00:14:02;;;;;;;;;;;77.50;2227.20;;;;;;5054834;28;20004;-77
2023/01/27 00:16:28;;;;;;;;;;;77.50;2227.20;;;;;;5055265;28;20390;-77
2023/01/27 00:18:53;;;;;;;;;;;77.50;2227.20;;;;;;5055592;28;19916;-77
2023/01/27 00:26:47;;;;;;;;;;;77.60;2227.20;;;;;;5055279;28;19967;-78
2023/01/27 00:29:13;;;;;;;;;;;77.60;2227.20;;;;;;5055377;28;20361;-78
2023/01/27 00:34:23;;;;;;;;;;;77.60;2227.20;;;;;;5054562;28;19963;-77
2023/01/27 00:36:48;;;;;;;;;;;77.60;2227.20;;;;;;5054931;28;19956;-78
2023/01/27 00:39:14;;;;;;;;;;;77.60;2227.20;;;;;;5053977;28;19908;-77
2023/01/27 00:41:39;;;;;;;;;;;77.70;2227.20;;;;;;5056066;28;19913;-78
2023/01/27 00:44:05;;;;;;;;;;;77.60;2227.20;;;;;;5052265;28;19913;-77
2023/01/27 00:46:31;;;;;;;;;;;77.60;2227.20;;;;;;5053972;28;19916;-78
2023/01/27 00:48:56;;;;;;;;;;;77.50;2227.20;;;;;;5054146;28;19909;-77
2023/01/27 00:51:22;;;;;;;;;;;77.60;2227.20;;;;;;5053977;28;19909;-77
2023/01/27 00:53:48;;;;;;;;;;;77.50;2227.20;;;;;;5055617;28;19962;-78
2023/01/27 00:56:13;;;;;;;;;;;77.50;2227.20;;;;;;5059535;28;19924;-78
2023/01/27 00:58:39;;;;;;;;;;;77.50;2227.20;;;;;;5074503;28;19913;-78
2023/01/27 01:01:06;;;;;;;;;;;77.50;2227.20;;;;;;5059584;28;20364;-78
2023/01/27 01:03:33;;;;;;;;;;;77.50;2227.20;;;;;;5074700;28;19908;-77
2023/01/27 01:05:59;;;;;;;;;;;77.50;2227.20;;;;;;5074267;28;19913;-77
2023/01/27 01:08:25;;;;;;;;;;;77.50;2227.20;;;;;;5075230;28;19917;-78
2023/01/27 01:10:51;;;;;;;;;;;77.60;2227.20;;;;;;5074421;28;19908;-77
2023/01/27 01:13:17;;;;;;;;;;;77.50;2227.20;;;;;;5061369;28;19931;-77
2023/01/27 01:15:43;;;;;;;;;;;77.40;2227.20;;;;;;5074438;28;19908;-77
2023/01/27 01:18:09;;;;;;;;;;;77.50;2227.20;;;;;;5055735;28;19908;-77
2023/01/27 01:20:36;;;;;;;;;;;77.60;2227.20;;;;;;5055392;28;20000;-77
2023/01/27 01:23:02;;;;;;;;;;;77.50;2227.20;;;;;;5056439;28;19954;-77
2023/01/27 01:25:27;;;;;;;;;;;77.50;2227.20;;;;;;5074225;28;19908;-77
2023/01/27 01:27:53;;;;;;;;;;;77.50;2227.20;;;;;;5058738;28;19958;-78
2023/01/27 01:30:20;;;;;;;;;;;77.50;2227.20;;;;;;5073790;28;19913;-78
2023/01/27 01:32:46;;;;;;;;;;;77.50;2227.20;;;;;;5073974;28;19912;-78
2023/01/27 01:35:11;;;;;;;;;;;77.60;2227.20;;;;;;5054674;28;19955;-78
2023/01/27 01:37:37;;;;;;;;;;;77.50;2227.20;;;;;;5063928;28;19970;-78
2023/01/27 01:40:03;;;;;;;;;;;77.50;2227.20;;;;;;5063310;28;19934;-78
2023/01/27 01:42:46;;;;;;;;;;;77.50;2227.20;;;;;;5055655;28;19908;-78
2023/01/27 01:45:30;;;;;;;;;;;77.60;2227.20;;;;;;5056150;28;19939;-77
2023/01/27 01:48:01;;;;;;;;;;;77.50;2227.20;;;;;;5088579;28;20372;-78
2023/01/27 01:50:27;;;;;;;;;;;77.50;2227.20;;;;;;5055798;28;19977;-78
2023/01/27 01:52:53;;;;;;;;;;;77.50;2227.20;;;;;;5055709;28;20364;-78
2023/01/27 01:55:19;;;;;;;;;;;77.50;2227.20;;;;;;5057332;28;19909;-78
2023/01/27 01:57:45;;;;;;;;;;;77.50;2227.20;;;;;;5054843;28;19924;-77
2023/01/27 02:00:11;;;;;;;;;;;77.50;2227.20;;;;;;5055468;28;19924;-77
2023/01/27 02:02:37;;;;;;;;;;;77.40;2227.20;;;;;;5073950;28;19915;-78
2023/01/27 02:05:15;;;;;;;;;;;77.50;2227.20;;;;;;5074488;28;20345;-78
2023/01/27 02:07:59;;;;;;;;;;;77.50;2227.20;;;;;;5069654;28;19931;-77
2023/01/27 02:10:24;;;;;;;;;;;77.50;2227.20;;;;;;5064235;28;19909;-77
2023/01/27 02:12:50;;;;;;;;;;;77.60;2227.20;;;;;;5045296;28;19915;-77
2023/01/27 02:15:16;;;;;;;;;;;77.50;2227.20;;;;;;5064966;28;19915;-77
2023/01/27 02:17:42;;;;;;;;;;;77.40;2227.20;;;;;;5045760;28;19940;-77
2023/01/27 02:20:13;;;;;;;;;;;77.50;2227.20;;;;;;5045474;28;20361;-78
2023/01/27 02:22:45;;;;;;;;;;;77.50;2227.20;;;;;;5047020;28;19908;-77
2023/01/27 02:25:31;;;;;;;;;;;77.50;2227.20;;;;;;5064647;28;19909;-78
2023/01/27 02:27:57;;;;;;;;;;;77.50;2227.20;;;;;;5008470;28;19918;-77
2023/01/27 02:30:22;;;;;;;;;;;77.40;2227.20;;;;;;5008551;28;20390;-77
2023/01/27 02:32:48;;;;;;;;;;;77.40;2227.20;;;;;;4976012;28;20396;-77
2023/01/27 02:35:15;;;;;;;;;;;77.40;2227.20;;;;;;4992255;28;20325;-77
2023/01/27 02:37:41;;;;;;;;;;;77.30;2227.20;;;;;;4975742;28;19918;-78
2023/01/27 02:40:08;;;;;;;;;;;77.30;2227.20;;;;;;4976009;28;19910;-77
2023/01/27 02:42:33;;;;;;;;;;;77.40;2227.20;;;;;;4967877;28;20000;-77
2023/01/27 02:44:59;;;;;;;;;;;77.30;2227.20;;;;;;5008468;28;20057;-78
2023/01/27 02:47:24;;;;;;;;;;;77.30;2227.20;;;;;;4976120;28;19957;-77
2023/01/27 02:49:50;;;;;;;;;;;77.40;2227.20;;;;;;5007964;28;19917;-77
2023/01/27 02:52:16;;;;;;;;;;;77.30;2227.20;;;;;;4991946;28;19910;-77
2023/01/27 02:54:41;;;;;;;;;;;77.30;2227.20;;;;;;4975656;28;19952;-78
2023/01/27 02:57:07;;;;;;;;;;;77.30;2227.20;;;;;;4986382;28;20341;-77
2023/01/27 02:59:33;;;;;;;;;;;77.40;2227.20;;;;;;4975714;28;20398;-77
2023/01/27 03:01:58;;;;;;;;;;;77.40;2227.20;;;;;;4975689;28;19952;-77
2023/01/27 03:04:24;;;;;;;;;;;77.40;2227.20;;;;;;4987597;28;19909;-78
2023/01/27 03:06:49;;;;;;;;;;;77.40;2227.20;;;;;;5063269;28;19915;-77
2023/01/27 03:09:15;;;;;;;;;;;77.40;2227.20;;;;;;5044596;28;19917;-77
2023/01/27 03:19:53;;;;;;;;;;;77.30;2227.20;;;;;;5064634;28;19996;-78
2023/01/27 03:22:19;;;;;;;;;;;77.30;2227.20;;;;;;5046113;28;19947;-77
2023/01/27 03:24:44;;;;;;;;;;;77.30;2227.20;;;;;;5062739;28;20434;-78
2023/01/27 03:27:10;;;;;;;;;;;77.20;2227.20;;;;;;5046730;28;19921;-77
2023/01/27 03:29:53;;;;;;;;;;;77.20;2227.20;;;;;;5062252;28;19909;-77
2023/01/27 03:32:19;;;;;;;;;;;77.20;2227.20;;;;;;5046576;28;19946;-77
2023/01/27 03:34:45;;;;;;;;;;;77.20;2227.20;;;;;;5045973;28;19912;-77
2023/01/27 03:48:07;;;;;;;;;;;77.20;2227.20;;;;;;5068191;28;19916;-77
2023/01/27 03:50:36;;;;;;;;;;;77.10;2227.20;;;;;;5049144;28;19908;-78
2023/01/27 03:53:02;;;;;;;;;;;77.10;2227.20;;;;;;5065391;28;19955;-77
2023/01/27 03:55:31;;;;;;;;;;;77.10;2227.20;;;;;;5047778;28;19909;-78
2023/01/27 03:58:13;;;;;;;;;;;77.20;2227.20;;;;;;5057974;28;19932;-78
2023/01/27 04:00:39;;;;;;;;;;;77.10;2227.20;;;;;;5058385;28;20003;-78
2023/01/27 04:08:33;;;;;;;;;;;77.30;2227.20;;;;;;5076249;28;20429;-77
2023/01/27 04:13:46;;;;;;;;;;;77.10;2227.20;;;;;;5076247;28;19954;-78
2023/01/27 04:16:11;;;;;;;;;;;77.20;2227.20;;;;;;5057975;28;19912;-79
2023/01/27 04:18:37;;;;;;;;;;;77.20;2227.20;;;;;;5075495;28;19909;-78
2023/01/27 04:21:03;;;;;;;;;;;77.20;2227.20;;;;;;5066424;28;19923;-78
2023/01/27 04:23:28;;;;;;;;;;;77.20;2227.20;;;;;;5047779;28;19908;-77
2023/01/27 04:25:55;;;;;;;;;;;77.20;2227.20;;;;;;5052718;28;20433;-77
2023/01/27 04:28:21;;;;;;;;;;;77.20;2227.20;;;;;;5046154;28;19917;-77
2023/01/27 04:30:47;;;;;;;;;;;77.10;2227.20;;;;;;5064509;28;19908;-78
2023/01/27 04:33:14;;;;;;;;;;;77.20;2227.20;;;;;;5067935;28;20459;-78
2023/01/27 04:35:46;;;;;;;;;;;77.20;2227.20;;;;;;5047974;28;19909;-77
2023/01/27 04:38:12;;;;;;;;;;;77.20;2227.20;;;;;;5063064;28;20054;-78
2023/01/27 04:40:38;;;;;;;;;;;77.10;2227.20;;;;;;5057520;28;19909;-78
2023/01/27 04:43:04;;;;;;;;;;;77.00;2227.20;;;;;;5064439;28;19993;-77
2023/01/27 04:45:30;;;;;;;;;;;77.10;2227.20;;;;;;5063996;28;19908;-79
2023/01/27 04:47:55;;;;;;;;;;;77.10;2227.20;;;;;;5072225;28;20413;-79
2023/01/27 04:50:21;;;;;;;;;;;77.20;2227.20;;;;;;5067014;28;20363;-79
2023/01/27 04:52:46;;;;;;;;;;;77.10;2227.20;;;;;;5066103;28;20343;-77
2023/01/27 04:55:12;;;;;;;;;;;76.90;2227.20;;;;;;5068999;28;20307;-77
2023/01/27 04:57:37;;;;;;;;;;;77.20;2227.20;;;;;;5063108;28;19924;-77
2023/01/27 05:00:04;;;;;;;;;;;77.20;2227.20;;;;;;5071341;28;20012;-77
2023/01/27 05:02:30;;;;;;;;;;;77.20;2227.20;;;;;;5045809;28;20427;-78
2023/01/27 05:04:56;;;;;;;;;;;77.20;2227.20;;;;;;5053673;28;19940;-77
2023/01/27 05:07:22;;;;;;;;;;;77.20;2227.20;;;;;;5065855;28;19943;-77
2023/01/27 05:09:48;;;;;;;;;;;77.20;2227.20;;;;;;5050452;28;19940;-78
2023/01/27 05:12:14;;;;;;;;;;;77.20;2227.20;;;;;;5067266;28;19908;-77
2023/01/27 05:14:39;;;;;;;;;;;77.20;2227.20;;;;;;5064507;28;19913;-78
2023/01/27 05:17:05;;;;;;;;;;;77.20;2227.20;;;;;;5050113;28;19921;-78
2023/01/27 05:19:30;;;;;;;;;;;77.20;2227.20;;;;;;5060072;28;20375;-77
2023/01/27 05:21:56;;;;;;;;;;;77.20;2227.20;;;;;;5053273;28;19909;-78
2023/01/27 05:24:21;;;;;;;;;;;77.20;2227.20;;;;;;5044807;28;19909;-77
2023/01/27 05:26:47;;;;;;;;;;;77.20;2227.20;;;;;;5051985;28;19922;-78
2023/01/27 05:29:12;;;;;;;;;;;77.20;2227.20;;;;;;5045216;28;19909;-77
2023/01/27 05:31:38;;;;;;;;;;;77.20;2227.20;;;;;;5065364;28;19909;-77
2023/01/27 05:34:03;;;;;;;;;;;77.20;2227.20;;;;;;5044606;28;20377;-77
2023/01/27 05:36:29;;;;;;;;;;;77.20;2227.20;;;;;;5052710;28;20268;-77
2023/01/27 05:38:56;;;;;;;;;;;77.20;2227.20;;;;;;5046007;28;19920;-77
2023/01/27 05:41:21;;;;;;;;;;;77.20;2227.20;;;;;;5046846;28;19909;-78
2023/01/27 05:43:50;;;;;;;;;;;77.30;2227.20;;;;;;5045466;28;19946;-76
2023/01/27 05:46:18;;;;;;;;;;;77.40;2227.20;;;;;;5046818;28;20414;-76
2023/01/27 05:48:45;;;;;;;;;;;77.40;2227.20;;;;;;5049860;28;19983;-77
2023/01/27 05:51:11;;;;;;;;;;;77.40;2227.20;;;;;;5062156;28;20001;-77
2023/01/27 05:53:37;;;;;;;;;;;77.40;2227.20;;;;;;5051317;28;20323;-77
2023/01/27 05:56:03;;;;;;;;;;;77.30;2227.20;;;;;;5040755;28;19948;-78
2023/01/27 05:58:30;;;;;;;;;;;77.30;2227.20;;;;;;5034730;28;19920;-77
2023/01/27 06:00:55;;;;;;;;;;;77.30;2227.20;;;;;;5039124;28;19913;-77
2023/01/27 06:03:21;;;;;;;;;;;77.40;2227.20;;;;;;5052291;28;19909;-76
2023/01/27 06:05:54;;;;;;;;;;;77.30;2227.20;;;;;;5046216;28;19959;-77
2023/01/27 06:08:21;;;;;;;;;;;77.30;2227.20;;;;;;5040454;28;19909;-77
2023/01/27 06:10:46;;;;;;;;;;;77.40;2227.20;;;;;;5045485;28;19944;-78
2023/01/27 06:13:12;;;;;;;;;;;77.40;2227.20;;;;;;5040821;28;19955;-78
2023/01/27 06:15:45;;;;;;;;;;;77.40;2227.20;;;;;;5049821;28;19909;-77
2023/01/27 06:18:11;;;;;;;;;;;77.30;2227.20;;;;;;5084985;28;19921;-76
2023/01/27 06:20:37;;;;;;;;;;;77.40;2227.20;;;;;;5053974;28;20322;-77
2023/01/27 06:23:03;;;;;;;;;;;77.60;2227.20;;;;;;5059589;28;19961;-77
2023/01/27 06:25:28;;;;;;;;;;;77.40;2227.20;;;;;;5052981;28;19955;-77
2023/01/27 06:27:54;;;;;;;;;;;77.40;2227.20;;;;;;5051793;28;19971;-76
2023/01/27 06:30:20;;;;;;;;;;;77.50;2227.20;;;;;;5053787;28;19948;-77
2023/01/27 06:32:45;;;;;;;;;;;77.40;2227.20;;;;;;5052233;28;20396;-77
2023/01/27 06:35:11;;;;;;;;;;;77.50;2227.20;;;;;;5064150;28;20242;-77
2023/01/27 06:37:36;;;;;;;;;;;77.60;2227.20;;;;;;5052573;28;20364;-77
2023/01/27 06:40:03;;;;;;;;;;;77.60;2227.20;;;;;;5051628;28;19909;-77
2023/01/27 06:42:29;;;;;;;;;;;77.50;2227.20;;;;;;5051723;28;19956;-77
2023/01/27 06:44:54;;;;;;;;;;;77.50;2227.20;;;;;;5053405;28;20301;-77
2023/01/27 06:47:20;;;;;;;;;;;77.50;2227.20;;;;;;5051683;28;19909;-77
2023/01/27 06:49:46;;;;;;;;;;;77.50;2227.20;;;;;;5052009;28;20356;-78
2023/01/27 06:52:11;;;;;;;;;;;77.60;2227.20;;;;;;5052925;28;19963;-77
2023/01/27 06:54:37;;;;;;;;;;;77.50;2227.20;;;;;;5051639;28;19912;-76
2023/01/27 06:57:03;;;;;;;;;;;77.50;2227.20;;;;;;5054092;28;19925;-77
2023/01/27 06:59:28;;;;;;;;;;;77.50;2227.20;;;;;;5057138;28;20015;-80
2023/01/27 07:01:54;;;;;;;;;;;77.70;2227.20;;;;;;5055549;28;19914;-80
2023/01/27 07:04:21;;;;;;;;;;;77.70;2227.20;;;;;;5062700;28;20027;-79
2023/01/27 07:06:46;;;;;;;;;;;77.60;2227.20;;;;;;5055633;28;19909;-79
2023/01/27 07:09:12;;;;;;;;;;;77.60;2227.20;;;;;;5073200;28;20268;-79
2023/01/27 07:11:37;;;;;;;;;;;77.60;2227.20;;;;;;5055253;28;19913;-79
2023/01/27 07:14:03;;;;;;;;;;;77.60;2227.20;;;;;;5073467;28;19909;-79
2023/01/27 07:16:28;;;;;;;;;;;77.50;2227.20;;;;;;5072910;28;19923;-79
2023/01/27 07:18:54;;;;;;;;;;;77.60;2227.20;;;;;;5057315;28;19908;-77
2023/01/27 07:21:19;;;;;;;;;;;77.50;2227.20;;;;;;5076531;28;20008;-77
2023/01/27 07:23:45;;;;;;;;;;;77.50;2227.20;;;;;;5063952;28;19947;-77
2023/01/27 07:26:10;;;;;;;;;;;77.40;2227.20;;;;;;5058194;28;19947;-76
2023/01/27 07:28:36;;;;;;;;;;;77.40;2227.20;;;;;;5060124;28;19915;-77
2023/01/27 07:31:02;;;;;;;;;;;77.40;2227.20;;;;;;5073421;28;19916;-76
2023/01/27 07:33:28;;;;;;;;;;;77.50;2227.20;;;;;;5073074;28;19944;-76
2023/01/27 07:35:54;;;;;;;;;;;77.50;2227.20;;;;;;5064173;28;19954;-76
2023/01/27 07:38:20;;;;;;;;;;;77.40;2227.20;;;;;;5075552;28;19978;-76
2023/01/27 07:40:45;;;;;;;;;;;77.50;2227.20;;;;;;5058180;28;20353;-76
2023/01/27 07:43:11;;;;;;;;;;;77.60;2227.20;;;;;;5063339;28;19908;-78
2023/01/27 07:45:36;;;;;;;;;;;77.50;2227.20;;;;;;5058715;28;19909;-76
2023/01/27 07:48:03;;;;;;;;;;;77.50;2227.20;;;;;;5067850;28;19999;-78
2023/01/27 07:50:29;;;;;;;;;;;77.60;2227.20;;;;;;5058295;28;19940;-77
2023/01/27 07:52:57;;;;;;;;;;;77.60;2227.20;;;;;;5075540;28;20340;-77
2023/01/27 07:55:22;;;;;;;;;;;77.50;2227.20;;;;;;5075662;28;19968;-78
2023/01/27 07:57:48;;;;;;;;;;;77.60;2227.20;;;;;;5076080;28;19967;-79
2023/01/27 08:00:14;;;;;;;;;;;77.60;2227.20;;;;;;5076247;28;19916;-78
2023/01/27 08:02:39;;;;;;;;;;;77.50;2227.20;;;;;;5059788;28;20380;-79
2023/01/27 08:05:06;;;;;;;;;;;77.60;2227.20;;;;;;5075962;28;20291;-80
2023/01/27 08:07:31;;;;;;;;;;;77.70;2227.20;;;;;;5058641;28;19909;-78
2023/01/27 08:09:57;;;;;;;;;;;102.50;2227.20;;;;;;5073742;28;19923;-78
2023/01/27 08:12:23;;;;;;;;;;;77.70;2227.20;;;;;;5062897;28;19909;-77
2023/01/27 08:14:48;;;;;;;;;;;77.60;2227.20;;;;;;5048929;28;20406;-77
2023/01/27 08:17:14;;;;;;;;;;;77.60;2227.20;;;;;;5066818;28;19975;-79
2023/01/27 08:19:39;;;;;;;;;;;77.60;2227.20;;;;;;5058488;28;20016;-79
2023/01/27 08:22:05;;;;;;;;;;;77.70;2227.20;;;;;;5058228;28;19995;-81
2023/01/27 08:24:31;;;;;;;;;;;77.70;2227.20;;;;;;5057078;28;20432;-81
2023/01/27 08:26:56;;;;;;;;;;;77.60;2227.20;;;;;;5057468;28;20364;-77
2023/01/27 08:29:22;;;;;;;;;;;77.60;2227.20;;;;;;5063078;28;19960;-80
2023/01/27 08:31:47;;;;;;;;;;;77.70;2227.20;;;;;;5057154;28;19908;-77
2023/01/27 08:34:13;;;;;;;;;;;77.70;2227.20;;;;;;5058179;28;19908;-77
2023/01/27 08:36:41;;;;;;;;;;;77.70;2227.20;;;;;;5075250;28;19913;-78
2023/01/27 08:39:07;;;;;;;;;;;77.70;2227.20;;;;;;5075661;28;19915;-77
2023/01/27 08:41:33;;;;;;;;;;;77.70;2227.20;;;;;;5075584;28;20007;-77
2023/01/27 08:43:58;;;;;;;;;;;102.40;2227.20;;;;;;5058692;28;19940;-78
2023/01/27 08:46:24;;;;;;;;;;;102.40;2227.20;;;;;;5075621;28;19916;-80
2023/01/27 08:48:50;;;;;;;;;;;102.40;2227.20;;;;;;5075367;28;19908;-79
2023/01/27 08:51:16;;;;;;;;;;;102.50;2227.20;;;;;;5075355;28;20384;-78
2023/01/27 08:53:41;;;;;;;;;;;102.40;2227.20;;;;;;5074810;28;20350;-78
2023/01/27 08:56:10;;;;;;;;;;;102.40;2227.20;;;;;;5060212;28;20380;-79
2023/01/27 08:58:35;;;;;;;;;;;102.40;2227.20;;;;;;5064631;28;19959;-81
2023/01/27 09:01:02;;;;;;;;;;;102.50;2227.20;;;;;;5071929;28;20391;-79
2023/01/27 09:03:28;;;;;;;;;;;77.70;2227.20;;;;;;5062074;28;20007;-79
2023/01/27 09:05:53;;;;;;;;;;;77.70;2227.20;;;;;;5072880;28;19954;-79
2023/01/27 09:08:19;;;;;;;;;;;102.50;2227.20;;;;;;5060745;28;19916;-79
2023/01/27 09:10:44;;;;;;;;;;;102.50;2227.20;;;;;;5067972;28;19909;-79
2023/01/27 09:13:10;;;;;;;;;;;102.50;2227.20;;;;;;5074485;28;20300;-77
2023/01/27 09:15:36;;;;;;;;;;;102.50;2227.20;;;;;;5074996;28;19919;-79
2023/01/27 09:18:02;;;;;;;;;;;102.40;2227.20;;;;;;5074881;28;19916;-79
2023/01/27 09:20:29;;;;;;;;;;;102.50;2227.20;;;;;;5071922;28;19935;-77
2023/01/27 09:22:55;;;;;;;;;;;102.50;2227.20;;;;;;5069915;28;20249;-76
2023/01/27 09:25:20;;;;;;;;;;;102.40;2227.20;;;;;;5052949;28;19916;-76
2023/01/27 09:27:46;;;;;;;;;;;102.40;2227.20;;;;;;5090136;28;19921;-78
2023/01/27 09:30:12;;;;;;;;;;;77.70;2227.20;;;;;;5074181;28;19995;-76
2023/01/27 09:32:38;;;;;;;;;;;77.70;2227.20;;;;;;5074039;28;19915;-75
2023/01/27 09:35:04;;;;;;;;;;;77.70;2227.20;;;;;;5074120;28;19909;-75
2023/01/27 09:37:32;;;;;;;;;;;102.40;2227.20;;;;;;5059428;28;19916;-78
2023/01/27 09:40:00;;;;;;;;;;;102.40;2227.20;;;;;;5057634;28;20021;-79
2023/01/27 09:42:44;;;;;;;;;;;77.70;2227.20;;;;;;5073290;28;19912;-78
2023/01/27 09:45:16;;;;;;;;;;;102.40;2227.20;;;;;;5072780;28;19990;-77
2023/01/27 09:47:51;;;;;;;;;;;102.40;2227.20;;;;;;5073620;28;19916;-79
2023/01/27 09:50:17;;;;;;;;;;;77.70;2227.20;;;;;;5063553;28;19921;-77
2023/01/27 09:52:49;;;;;;;;;;;102.40;2227.20;;;;;;5073813;28;19978;-76
2023/01/27 09:55:18;;;;;;;;;;;77.70;2227.20;;;;;;5073761;28;19915;-77
2023/01/27 09:57:49;;;;;;;;;;;77.70;2227.20;;;;;;5072221;28;19967;-76
2023/01/27 10:00:31;;;;;;;;;;;102.40;2227.20;;;;;;5071956;28;19908;-76
2023/01/27 10:03:16;;;;;;;;;;;102.50;2227.20;;;;;;5055483;28;20356;-77
2023/01/27 10:06:06;;;;;;;;;;;102.50;2227.20;;;;;;5070178;28;19995;-77
2023/01/27 10:08:38;;;;;;;;;;;102.50;2227.20;;;;;;5055974;28;19909;-74
2023/01/27 10:11:15;;;;;;;;;;;102.60;2227.20;;;;;;5069733;28;19915;-77
2023/01/27 10:13:40;;;;;;;;;;;102.60;2227.20;;;;;;5057462;28;19909;-76
2023/01/27 10:16:20;;;;;;;;;;;102.50;2227.20;;;;;;5071792;28;20368;-77
2023/01/27 10:18:55;;;;;;;;;;;102.50;2227.20;;;;;;5055580;28;19962;-76
2023/01/27 10:21:24;;;;;;;;;;;102.40;2227.20;;;;;;5073521;28;19909;-77
2023/01/27 10:24:08;;;;;;;;;;;102.60;2227.20;;;;;;5085212;28;19915;-78
2023/01/27 10:26:41;;;;;;;;;;;102.60;2227.20;;;;;;5064696;28;19917;-79
2023/01/27 10:29:12;;;;;;;;;;;102.60;2227.20;;;;;;5055777;28;19909;-78
2023/01/27 10:31:50;;;;;;;;;;;102.60;2227.20;;;;;;5088782;28;19943;-78
2023/01/27 10:34:19;;;;;;;;;;;102.50;2227.20;;;;;;5064547;28;20009;-78
2023/01/27 10:36:48;;;;;;;;;;;102.40;2227.20;;;;;;5088854;28;20011;-80
2023/01/27 10:39:25;;;;;;;;;;;102.50;2227.20;;;;;;5089384;28;19909;-77
2023/01/27 10:41:54;;;;;;;;;;;77.70;2227.20;;;;;;5086072;28;19912;-79
2023/01/27 10:44:38;;;;;;;;;;;77.70;2227.20;;;;;;5077085;28;19909;-78
2023/01/27 10:47:04;;;;;;;;;;;77.70;2227.20;;;;;;5072332;28;20330;-80
2023/01/27 10:49:35;;;;;;;;;;;77.60;2227.20;;;;;;5088876;28;19916;-79
2023/01/27 10:52:01;;;;;;;;;;;102.40;2227.20;;;;;;5088414;28;20368;-79
2023/01/27 10:54:33;;;;;;;;;;;102.40;2227.20;;;;;;5088893;28;20360;-78
2023/01/27 10:57:05;;;;;;;;;;;102.50;2227.20;;;;;;5061643;28;19975;-80
2023/01/27 10:59:37;;;;;;;;;;;77.70;2227.20;;;;;;5063585;28;20284;-79
2023/01/27 11:02:09;;;;;;;;;;;77.70;2227.20;;;;;;5054060;28;20331;-81
2023/01/27 11:04:37;;;;;;;;;;;77.70;2227.20;;;;;;5052480;28;19963;-79
2023/01/27 11:07:04;;;;;;;;;;;102.40;2227.20;;;;;;5055680;28;19960;-83
2023/01/27 11:09:38;;;;;;;;;;;102.50;2227.20;;;;;;5053035;28;19909;-79
2023/01/27 11:12:08;;;;;;;;;;;102.50;2227.20;;;;;;5085006;28;19999;-80
2023/01/27 11:14:40;;;;;;;;;;;102.40;2227.20;;;;;;5052122;28;20380;-83
2023/01/27 11:17:26;;;;;;;;;;;102.50;2227.20;;;;;;5061046;28;20511;-91
2023/01/27 11:19:58;;;;;;;;;;;102.40;2227.20;;;;;;5052001;28;19935;-80
2023/01/27 11:22:28;;;;;;;;;;;102.50;2227.20;;;;;;5051868;28;20003;-80
2023/01/27 11:25:00;;;;;;;;;;;102.40;2227.20;;;;;;5085924;28;19909;-80
2023/01/27 11:27:34;;;;;;;;;;;102.40;2227.20;;;;;;5052009;28;19959;-83
2023/01/27 11:30:10;;;;;;;;;;;102.40;2227.20;;;;;;5049029;28;19909;-79
2023/01/27 11:32:47;;;;;;;;;;;102.50;2227.20;;;;;;5059848;28;19966;-82
2023/01/27 11:35:14;;;;;;;;;;;102.40;2227.20;;;;;;5051853;28;19909;-79
2023/01/27 11:37:46;;;;;;;;;;;102.50;2227.20;;;;;;5052238;28;19927;-84
2023/01/27 11:40:32;;;;;;;;;;;102.40;2227.20;;;;;;5060515;28;19909;-81
2023/01/27 11:42:58;;;;;;;;;;;77.70;2227.20;;;;;;5049142;28;19959;-83
2023/01/27 11:45:24;;;;;;;;;;;102.60;2227.20;;;;;;5052155;28;19991;-81
2023/01/27 11:47:51;;;;;;;;;;;102.40;2227.20;;;;;;5051569;28;19948;-78
2023/01/27 11:50:19;;;;;;;;;;;102.50;2227.20;;;;;;5059370;28;19924;-77
2023/01/27 11:52:47;;;;;;;;;;;102.40;2227.20;;;;;;5051287;28;19923;-77
2023/01/27 11:55:12;;;;;;;;;;;102.40;2227.20;;;;;;5050922;28;19909;-84
2023/01/27 13:53:33;;;;;;;34.97;20.48;;;76.80;2227.20;;;;;;5050972;27;1558465;-79
2023/01/27 13:56:04;;;;;;;;;;;102.40;2227.20;;;;;;5082637;28;20025;-78
2023/01/27 13:58:58;;;;;;;60.55;29.83;;;77.60;2227.20;;;;;;5070921;28;19904;-78
2023/01/27 14:01:24;;;;;;;64.72;28.45;;;77.40;2227.20;;;;;;5076452;28;20033;-76
2023/01/27 14:04:04;;;;;;;;;;;77.50;2227.20;;;;;;5080640;28;20075;-75
2023/01/27 14:06:59;;;;;;;40.72;20.63;;;77.50;2227.20;;;;;;5061887;28;19908;-79
2023/01/27 14:09:49;;;;;;;34.95;19.50;;;77.40;2227.20;;;;;;5060536;28;20029;-80
2023/01/27 14:12:39;;;;;;;34.67;18.23;;;77.40;2227.20;;;;;;5052627;28;20040;-78
2023/01/27 14:15:16;;;;;;;30.55;15.68;;;77.40;2227.20;;;;;;5064241;28;20036;-79
2023/01/27 14:17:58;;;;;;;29.45;15.98;;;77.30;2227.20;;;;;;5079703;28;20091;-79
2023/01/27 14:20:36;;;;;;;31.10;17.00;;;77.40;2227.20;;;;;;5064756;28;20028;-79
2023/01/27 14:23:24;;;;;;;32.53;19.38;;;77.50;2227.20;;;;;;5079311;28;20032;-79
2023/01/27 14:26:30;;;;;;;36.65;20.20;;;77.60;2227.20;;;;;;5061428;28;20064;-79
2023/01/27 14:29:17;;;;;;;37.25;18.75;;;77.60;2227.20;;;;;;5055168;28;20055;-79
2023/01/27 14:32:01;;;;;;;;;;;77.50;2227.20;;;;;;5064399;28;20406;-79
2023/01/27 14:34:57;;;;;;;52.15;27.45;;;77.60;2227.20;;;;;;5077841;28;19909;-79
2023/01/27 14:37:41;;;;;;;51.90;25.73;;;77.60;2227.20;;;;;;5078175;28;20037;-79
2023/01/27 14:40:30;;;;;;;44.15;25.33;;;77.40;2227.20;;;;;;5062359;28;20442;-79
2023/01/27 14:43:11;;;;;;;42.13;22.60;;;77.50;2227.20;;;;;;5075860;28;20086;-79
2023/01/27 14:46:08;;;;;;;39.75;21.65;;;77.60;2227.20;;;;;;5082453;28;20020;-80
2023/01/27 14:48:42;;;;;;;35.70;18.10;;;77.60;2227.20;;;;;;4987060;28;20031;-80
2023/01/27 14:51:11;;;;;;;38.80;20.10;;;77.50;2227.20;;;;;;4981104;28;20046;-81
2023/01/27 14:53:55;;;;;;;36.95;18.27;;;77.60;2227.20;;;;;;4977228;28;20090;-79
2023/01/27 14:56:58;;;;;;;33.47;20.33;;;77.70;2227.20;;;;;;4963655;28;20027;-80
2023/01/27 14:59:48;;;;;;;36.00;20.35;;;77.70;2227.20;;;;;;4968400;28;20034;-79
2023/01/27 15:02:17;;;;;;;36.22;19.25;;;77.70;2227.20;;;;;;4964732;28;20047;-79
2023/01/27 15:05:18;;;;;;;39.47;20.38;;;77.70;2227.20;;;;;;4963921;28;20036;-79
2023/01/27 15:08:23;;;;;;;41.47;22.23;;;77.60;2227.20;;;;;;4928444;29;20140;-80
2023/01/27 15:11:04;;;;;;;40.75;22.88;;;77.70;2227.20;;;;;;4864244;29;20126;-81
2023/01/27 15:13:42;;;;;;;36.03;20.33;;;77.70;2227.20;;;;;;4864039;29;20065;-80
2023/01/27 15:16:31;;;;;;;32.95;17.92;;;102.40;2227.20;;;;;;4879439;29;21108;-81
2023/01/27 15:19:06;;;;;;;34.70;18.55;;;77.60;2227.20;;;;;;4863201;29;20029;-80
2023/01/27 15:21:37;;;;;;;34.95;18.75;;;77.60;2227.20;;;;;;4864592;29;20139;-81
2023/01/27 15:24:14;;;;;;;38.55;18.95;;;77.60;2227.20;;;;;;4880752;29;20091;-81
2023/01/27 15:26:41;;;;;;;36.78;19.42;;;77.60;2227.20;;;;;;4911814;29;20043;-81
2023/01/27 15:29:14;;;;;;;36.90;17.83;;;77.70;2227.20;;;;;;4919870;29;20067;-81
2023/01/27 15:31:40;;;;;;;34.25;18.70;;;77.70;2227.20;;;;;;4920438;29;20035;-80
2023/01/27 15:34:05;;;;;;;;;;;77.50;2227.20;;;;;;4936678;29;20044;-81
2023/01/27 15:36:35;;;;;;;35.20;18.00;;;77.60;2227.20;;;;;;4936529;29;19917;-81
2023/01/27 15:39:09;;;;;;;48.42;21.33;;;77.40;2227.20;;;;;;4933766;29;20043;-82
2023/01/27 15:41:38;;;;;;;49.20;22.95;;;77.40;2227.20;;;;;;4950804;28;20047;-79
2023/01/27 15:45:01;;;;;;;58.33;23.63;;;77.30;2227.20;;;;;;4974404;28;20030;-79
2023/01/27 15:47:32;;;;;;;41.22;20.85;;;77.40;2227.20;;;;;;4955026;28;20181;-77
2023/01/27 15:50:12;;;;;;;42.20;20.52;;;77.40;2227.20;;;;;;5003756;28;20030;-79
2023/01/27 15:52:41;;;;;;;39.88;20.08;;;77.40;2227.20;;;;;;5005412;28;20049;-79
2023/01/27 15:55:32;;;;;;;45.40;21.30;;;77.60;2227.20;;;;;;5002201;28;20437;-79
2023/01/27 15:58:21;;;;;;;44.13;21.85;;;77.60;2227.20;;;;;;4996028;28;20042;-79
2023/01/27 16:00:52;;;;;;;42.53;22.33;;;77.70;2227.20;;;;;;4998799;28;20126;-79
2023/01/27 16:03:27;;;;;;;36.08;21.45;;;77.70;2227.20;;;;;;5001463;28;20496;-78
2023/01/27 16:06:01;;;;;;;48.38;23.27;;;77.70;2227.20;;;;;;5003576;28;20403;-79
2023/01/27 16:08:31;;;;;;;45.60;22.50;;;77.60;2227.20;;;;;;4986859;28;20034;-78
2023/01/27 16:11:27;;;;;;;38.25;20.38;;;77.70;2227.20;;;;;;5001716;28;20034;-78
2023/01/27 16:14:11;;;;;;;41.15;22.63;;;77.70;2227.20;;;;;;4993166;28;20401;-78
2023/01/27 16:17:06;;;;;;;46.72;21.75;;;102.40;2227.20;;;;;;4989434;28;20104;-77
2023/01/27 16:19:55;;;;;;;43.22;22.92;;;102.40;2227.20;;;;;;4928867;29;20047;-77
2023/01/27 16:22:22;;;;;;;38.92;20.67;;;77.70;2227.20;;;;;;4928431;29;20043;-77